createdAt,value
2023-05-22T00:00:07.378Z,19.40
2023-05-22T00:02:38.647Z,19.20
2023-05-22T00:05:07.571Z,19.10
2023-05-22T00:07:35.361Z,19.30
2023-05-22T00:10:03.192Z,19.20
2023-05-22T00:12:32.310Z,19.20
2023-05-22T00:15:00.228Z,19.20
2023-05-22T00:17:30.734Z,19.00
2023-05-22T00:20:03.752Z,18.90
2023-05-22T00:22:35.245Z,19.10
2023-05-22T00:25:03.213Z,19.20
2023-05-22T00:27:32.798Z,19.10
2023-05-22T00:30:01.133Z,18.90
2023-05-22T00:32:29.233Z,19.10
2023-05-22T00:34:57.079Z,18.30
2023-05-22T00:37:25.460Z,18.30
2023-05-22T00:39:53.266Z,18.70
2023-05-22T00:42:21.219Z,18.50
2023-05-22T00:44:50.462Z,18.60
2023-05-22T00:47:18.271Z,18.50
2023-05-22T00:49:47.374Z,18.30
2023-05-22T00:52:17.569Z,18.50
2023-05-22T00:54:45.480Z,18.20
2023-05-22T00:57:14.177Z,18.20
2023-05-22T00:59:42.088Z,18.40
2023-05-22T01:02:11.253Z,18.40
2023-05-22T01:04:39.224Z,18.50
2023-05-22T01:07:07.391Z,18.70
2023-05-22T01:09:35.193Z,18.50
2023-05-22T01:12:09.908Z,18.70
2023-05-22T01:14:46.829Z,18.40
2023-05-22T01:17:23.423Z,18.40
2023-05-22T01:20:06.731Z,18.30
2023-05-22T01:23:04.345Z,18.20
2023-05-22T01:25:57.636Z,18.10
2023-05-22T01:28:41.145Z,18.10
2023-05-22T01:31:12.583Z,18.20
2023-05-22T01:33:47.539Z,17.90
2023-05-22T01:36:20.028Z,18.60
2023-05-22T01:38:48.238Z,18.50
2023-05-22T01:41:17.155Z,18.10
2023-05-22T01:43:46.396Z,18.30
2023-05-22T01:46:15.612Z,18.60
2023-05-22T01:48:43.431Z,18.20
2023-05-22T01:51:17.238Z,18.40
2023-05-22T01:53:52.833Z,18.10
2023-05-22T01:56:30.535Z,17.80
2023-05-22T01:59:05.232Z,18.10
2023-05-22T02:01:37.488Z,18.10
2023-05-22T02:04:06.905Z,17.80
2023-05-22T02:06:35.031Z,18.10
2023-05-22T02:09:03.857Z,18.20
2023-05-22T02:11:35.767Z,17.60
2023-05-22T02:14:03.842Z,17.80
2023-05-22T02:16:31.855Z,17.90
2023-05-22T02:19:06.498Z,17.90
2023-05-22T02:21:35.126Z,18.00
2023-05-22T02:24:03.513Z,17.70
2023-05-22T02:26:31.326Z,17.90
2023-05-22T02:28:59.538Z,17.90
2023-05-22T02:31:27.402Z,17.60
2023-05-22T02:33:55.242Z,17.90
2023-05-22T02:36:26.173Z,17.80
2023-05-22T02:38:55.359Z,17.60
2023-05-22T02:41:23.582Z,17.50
2023-05-22T02:43:51.312Z,17.50
2023-05-22T02:46:19.226Z,17.50
2023-05-22T02:48:47.061Z,17.30
2023-05-22T02:51:14.919Z,16.90
2023-05-22T02:53:44.018Z,17.30
2023-05-22T02:56:12.126Z,17.30
2023-05-22T02:58:40.303Z,17.30
2023-05-22T03:01:09.005Z,17.10
2023-05-22T03:03:37.268Z,17.20
2023-05-22T03:06:06.169Z,17.20
2023-05-22T03:08:34.768Z,17.00
2023-05-22T03:11:03.922Z,16.90
2023-05-22T03:13:31.712Z,17.10
2023-05-22T03:16:00.038Z,17.10
2023-05-22T03:18:27.974Z,16.80
2023-05-22T03:20:55.741Z,17.20
2023-05-22T03:23:25.110Z,17.20
2023-05-22T03:25:52.935Z,16.70
2023-05-22T03:28:22.124Z,17.10
2023-05-22T03:30:49.999Z,17.30
2023-05-22T03:33:17.817Z,16.90
2023-05-22T03:35:45.834Z,17.10
2023-05-22T03:38:13.599Z,17.10
2023-05-22T03:40:41.577Z,16.90
2023-05-22T03:43:09.551Z,17.00
2023-05-22T03:45:38.687Z,17.10
2023-05-22T03:48:06.746Z,16.90
2023-05-22T03:50:34.602Z,16.90
2023-05-22T03:53:02.378Z,16.60
2023-05-22T03:55:30.764Z,16.70
2023-05-22T03:57:58.691Z,17.00
2023-05-22T04:00:27.152Z,16.90
2023-05-22T04:02:58.702Z,16.60
2023-05-22T04:05:26.817Z,16.90
2023-05-22T04:07:54.636Z,17.00
2023-05-22T04:10:23.572Z,16.40
2023-05-22T04:12:51.672Z,16.60
2023-05-22T04:15:19.444Z,16.90
2023-05-22T04:17:47.346Z,16.70
2023-05-22T04:20:16.756Z,16.40
2023-05-22T04:22:45.841Z,16.80
2023-05-22T04:25:13.729Z,16.70
2023-05-22T04:27:41.508Z,16.20
2023-05-22T04:30:10.438Z,17.10
2023-05-22T04:32:38.280Z,16.90
2023-05-22T04:35:06.851Z,17.10
2023-05-22T04:37:36.298Z,17.00
2023-05-22T04:40:07.607Z,17.10
2023-05-22T04:42:35.535Z,17.20
2023-05-22T04:45:03.270Z,17.30
2023-05-22T04:47:32.464Z,17.70
2023-05-22T04:50:02.416Z,17.40
2023-05-22T04:52:30.344Z,17.30
2023-05-22T04:55:00.865Z,17.70
2023-05-22T04:57:29.715Z,17.90
2023-05-22T04:59:58.118Z,18.30
2023-05-22T05:02:25.900Z,18.10
2023-05-22T05:04:53.677Z,18.50
2023-05-22T05:07:21.620Z,18.30
2023-05-22T05:09:49.552Z,18.20
2023-05-22T05:12:18.735Z,18.70
2023-05-22T05:14:46.596Z,18.60
2023-05-22T05:17:14.545Z,18.70
2023-05-22T05:19:42.343Z,18.50
2023-05-22T05:22:10.109Z,18.70
2023-05-22T05:24:37.910Z,18.70
2023-05-22T05:27:05.942Z,18.50
2023-05-22T05:29:35.052Z,18.80
2023-05-22T05:32:03.905Z,18.70
2023-05-22T05:34:31.741Z,19.00
2023-05-22T05:36:59.555Z,18.80
2023-05-22T05:39:27.345Z,19.10
2023-05-22T05:41:55.243Z,19.40
2023-05-22T05:44:23.027Z,19.60
2023-05-22T05:46:52.410Z,19.30
2023-05-22T05:49:20.704Z,19.50
2023-05-22T05:51:48.610Z,19.70
2023-05-22T05:54:16.620Z,19.60
2023-05-22T05:56:44.446Z,20.00
2023-05-22T05:59:12.269Z,20.20
2023-05-22T06:01:42.450Z,20.30
2023-05-22T06:04:11.567Z,20.40
2023-05-22T06:06:39.590Z,20.60
2023-05-22T06:09:07.801Z,20.70
2023-05-22T06:11:35.715Z,20.60
2023-05-22T06:14:04.061Z,21.30
2023-05-22T06:16:32.135Z,21.60
2023-05-22T06:19:00.756Z,21.90
2023-05-22T06:21:29.906Z,22.40
2023-05-22T06:23:58.598Z,22.90
2023-05-22T06:26:26.730Z,23.50
2023-05-22T06:28:54.636Z,23.70
2023-05-22T06:31:24.405Z,24.10
2023-05-22T06:33:52.490Z,24.60
2023-05-22T06:36:20.368Z,25.30
2023-05-22T06:38:50.396Z,25.80
2023-05-22T06:41:18.266Z,26.50
2023-05-22T06:43:46.079Z,26.50
2023-05-22T06:46:14.130Z,26.80
2023-05-22T06:48:42.003Z,27.10
2023-05-22T06:51:11.520Z,26.70
2023-05-22T06:53:39.347Z,26.80
2023-05-22T06:56:08.699Z,27.10
2023-05-22T06:58:36.425Z,27.20
2023-05-22T07:01:04.596Z,27.10
2023-05-22T07:03:32.442Z,27.40
2023-05-22T07:06:00.324Z,27.70
2023-05-22T07:08:30.429Z,27.70
2023-05-22T07:10:58.582Z,27.60
2023-05-22T07:13:31.892Z,27.80
2023-05-22T07:15:59.775Z,27.90
2023-05-22T07:18:27.523Z,27.80
2023-05-22T07:20:55.456Z,28.50
2023-05-22T07:23:24.428Z,28.40
2023-05-22T07:25:53.919Z,28.80
2023-05-22T07:28:21.722Z,29.10
2023-05-22T07:30:51.232Z,29.10
2023-05-22T07:33:19.104Z,29.30
2023-05-22T07:35:47.005Z,29.00
2023-05-22T07:38:14.816Z,29.40
2023-05-22T07:40:42.636Z,29.70
2023-05-22T07:43:10.603Z,29.80
2023-05-22T07:45:39.541Z,29.70
2023-05-22T07:48:09.119Z,30.10
2023-05-22T07:50:36.898Z,30.00
2023-05-22T07:53:06.336Z,30.10
2023-05-22T07:55:34.069Z,29.80
2023-05-22T07:58:04.101Z,29.80
2023-05-22T08:00:32.291Z,29.90
2023-05-22T08:03:02.006Z,29.90
2023-05-22T08:05:33.853Z,29.70
2023-05-22T08:08:04.310Z,29.60
2023-05-22T08:10:52.263Z,29.70
2023-05-22T08:13:25.419Z,29.80
2023-05-22T08:16:00.357Z,29.80
2023-05-22T08:18:31.165Z,30.10
2023-05-22T08:21:02.655Z,30.10
2023-05-22T08:23:32.174Z,30.70
2023-05-22T08:26:01.942Z,30.70
2023-05-22T08:28:31.901Z,30.90
2023-05-22T08:31:01.527Z,30.40
2023-05-22T08:33:31.341Z,30.30
2023-05-22T08:36:02.362Z,30.50
2023-05-22T08:38:32.131Z,30.40
2023-05-22T08:41:01.971Z,31.00
2023-05-22T08:43:32.160Z,31.40
2023-05-22T08:46:06.285Z,31.00
2023-05-22T08:48:36.516Z,30.80
2023-05-22T08:51:09.860Z,31.10
2023-05-22T08:53:40.901Z,31.30
2023-05-22T08:56:11.213Z,31.50
2023-05-22T08:58:39.430Z,31.20
2023-05-22T09:01:07.457Z,31.80
2023-05-22T09:03:37.541Z,31.60
2023-05-22T09:06:09.289Z,31.00
2023-05-22T09:08:38.257Z,31.10
2023-05-22T09:11:06.132Z,31.90
2023-05-22T09:13:33.958Z,31.90
2023-05-22T09:16:09.473Z,32.30
2023-05-22T09:18:38.305Z,32.40
2023-05-22T09:21:18.129Z,32.50
2023-05-22T09:23:51.041Z,32.60
2023-05-22T09:26:19.216Z,32.90
2023-05-22T09:28:48.607Z,33.10
2023-05-22T09:31:16.383Z,33.20
2023-05-22T09:33:46.090Z,32.90
2023-05-22T09:36:15.268Z,31.90
2023-05-22T09:38:43.197Z,31.60
2023-05-22T09:41:11.003Z,31.40
2023-05-22T09:43:38.730Z,31.30
2023-05-22T09:46:06.765Z,31.30
2023-05-22T09:48:36.378Z,31.80
2023-05-22T09:51:05.109Z,32.30
2023-05-22T09:53:34.646Z,32.20
2023-05-22T09:56:06.441Z,32.30
2023-05-22T09:58:36.564Z,32.60
2023-05-22T10:01:06.349Z,32.50
2023-05-22T10:03:35.826Z,32.60
2023-05-22T10:06:04.651Z,33.20
2023-05-22T10:08:43.097Z,33.30
2023-05-22T10:11:12.023Z,33.10
2023-05-22T10:13:42.120Z,33.00
2023-05-22T10:16:12.034Z,32.70
2023-05-22T10:18:40.373Z,32.70
2023-05-22T10:21:08.233Z,33.00
2023-05-22T10:23:36.192Z,32.60
2023-05-22T10:26:06.386Z,32.00
2023-05-22T10:28:38.379Z,31.90
2023-05-22T10:31:12.620Z,31.80
2023-05-22T10:33:45.777Z,31.70
2023-05-22T10:36:21.287Z,31.80
2023-05-22T10:39:04.221Z,31.50
2023-05-22T10:41:34.692Z,31.50
2023-05-22T10:44:04.190Z,31.50
2023-05-22T10:46:34.648Z,31.40
2023-05-22T10:49:02.615Z,30.90
2023-05-22T10:51:30.811Z,30.70
2023-05-22T10:54:00.899Z,30.40
2023-05-22T10:56:36.793Z,30.00
2023-05-22T10:59:07.311Z,30.00
2023-05-22T11:01:37.858Z,30.00
2023-05-22T11:04:12.676Z,30.00
2023-05-22T11:06:42.264Z,30.00
2023-05-22T11:09:20.240Z,30.10
2023-05-22T11:12:10.101Z,30.00
2023-05-22T11:14:38.047Z,30.30
2023-05-22T11:17:06.755Z,30.50
2023-05-22T11:19:34.818Z,30.70
2023-05-22T11:22:04.212Z,31.00
2023-05-22T11:24:33.987Z,31.40
2023-05-22T11:27:06.053Z,31.40
2023-05-22T11:29:34.171Z,31.70
2023-05-22T11:32:02.911Z,32.20
2023-05-22T11:34:30.970Z,32.20
2023-05-22T11:36:59.675Z,32.00
2023-05-22T11:39:27.820Z,32.20
2023-05-22T11:41:55.981Z,32.30
2023-05-22T11:44:27.617Z,32.70
2023-05-22T11:46:55.649Z,32.90
2023-05-22T11:49:25.215Z,33.20
2023-05-22T11:51:53.219Z,33.10
2023-05-22T11:54:22.149Z,32.60
2023-05-22T11:56:49.989Z,32.80
2023-05-22T11:59:17.772Z,32.80
2023-05-22T12:01:50.006Z,33.00
2023-05-22T12:04:17.976Z,32.90
2023-05-22T12:06:46.103Z,32.90
2023-05-22T12:09:14.064Z,32.60
2023-05-22T12:11:47.020Z,32.40
2023-05-22T12:14:14.829Z,32.40
2023-05-22T12:16:44.396Z,32.60
2023-05-22T12:19:14.057Z,32.60
2023-05-22T12:21:42.650Z,32.60
2023-05-22T12:24:10.872Z,32.40
2023-05-22T12:26:38.856Z,32.60
2023-05-22T12:29:06.671Z,32.90
2023-05-22T12:31:38.492Z,32.70
2023-05-22T12:34:08.631Z,32.80
2023-05-22T12:36:40.649Z,32.80
2023-05-22T12:39:10.165Z,33.00
2023-05-22T12:41:37.968Z,32.80
2023-05-22T12:44:06.126Z,32.40
2023-05-22T12:46:34.585Z,32.50
2023-05-22T12:49:02.757Z,32.40
2023-05-22T12:51:32.622Z,32.40
2023-05-22T12:54:02.392Z,32.30
2023-05-22T12:56:30.449Z,32.20
2023-05-22T12:58:58.661Z,32.30
2023-05-22T13:01:27.172Z,32.20
2023-05-22T13:03:55.055Z,32.10
2023-05-22T13:06:22.808Z,31.70
2023-05-22T13:08:50.656Z,31.80
2023-05-22T13:11:20.079Z,31.70
2023-05-22T13:13:47.911Z,31.60
2023-05-22T13:16:15.771Z,31.20
2023-05-22T13:18:43.591Z,31.10
2023-05-22T13:21:12.603Z,31.40
2023-05-22T13:23:40.401Z,31.50
2023-05-22T13:26:08.531Z,31.50
2023-05-22T13:28:37.682Z,31.50
2023-05-22T13:31:05.562Z,31.70
2023-05-22T13:33:33.335Z,31.90
2023-05-22T13:36:01.196Z,31.80
2023-05-22T13:38:28.992Z,31.60
2023-05-22T13:40:56.831Z,31.80
2023-05-22T13:43:25.104Z,31.90
2023-05-22T13:45:54.280Z,32.00
2023-05-22T13:48:22.204Z,32.10
2023-05-22T13:50:49.993Z,32.20
2023-05-22T13:53:17.820Z,32.10
2023-05-22T13:55:46.044Z,32.00
2023-05-22T13:58:13.894Z,32.00
2023-05-22T14:00:41.716Z,32.20
2023-05-22T14:03:11.709Z,32.20
2023-05-22T14:05:39.751Z,32.20
2023-05-22T14:08:07.718Z,32.10
2023-05-22T14:10:35.809Z,31.90
2023-05-22T14:13:04.273Z,31.50
2023-05-22T14:15:32.207Z,31.70
2023-05-22T14:18:00.002Z,31.80
2023-05-22T14:20:29.207Z,31.90
2023-05-22T14:22:58.452Z,32.10
2023-05-22T14:25:26.565Z,32.00
2023-05-22T14:27:54.379Z,32.10
2023-05-22T14:30:22.218Z,32.00
2023-05-22T14:32:50.181Z,31.70
2023-05-22T14:35:18.879Z,31.70
2023-05-22T14:37:48.019Z,31.80
2023-05-22T14:40:16.157Z,31.40
2023-05-22T14:42:44.174Z,30.90
2023-05-22T14:45:12.682Z,30.40
2023-05-22T14:47:42.368Z,30.20
2023-05-22T14:50:18.861Z,30.00
2023-05-22T14:52:48.912Z,29.90
2023-05-22T14:55:17.513Z,29.80
2023-05-22T14:57:45.663Z,29.70
2023-05-22T15:00:15.152Z,29.60
2023-05-22T15:02:43.056Z,29.50
2023-05-22T15:05:11.251Z,29.40
2023-05-22T15:07:44.730Z,29.30
2023-05-22T15:10:15.434Z,29.00
2023-05-22T15:12:43.410Z,29.00
2023-05-22T15:15:12.119Z,29.00
2023-05-22T15:17:42.594Z,28.90
2023-05-22T15:20:11.935Z,28.80
2023-05-22T15:22:39.897Z,28.60
2023-05-22T15:25:09.504Z,28.50
2023-05-22T15:27:40.305Z,28.40
2023-05-22T15:30:11.298Z,28.30
2023-05-22T15:32:39.596Z,28.20
2023-05-22T15:35:08.983Z,28.20
2023-05-22T15:37:37.003Z,28.10
2023-05-22T15:40:06.476Z,27.90
2023-05-22T15:42:34.295Z,27.90
2023-05-22T15:45:03.432Z,27.90
2023-05-22T15:47:31.301Z,28.00
2023-05-22T15:49:59.170Z,28.00
2023-05-22T15:52:26.940Z,28.00
2023-05-22T15:54:56.905Z,27.90
2023-05-22T15:57:25.030Z,27.90
2023-05-22T15:59:52.780Z,27.80
2023-05-22T16:02:21.930Z,27.80
2023-05-22T16:04:50.659Z,27.80
2023-05-22T16:07:20.017Z,27.80
2023-05-22T16:09:50.066Z,27.70
2023-05-22T16:12:19.324Z,27.70
2023-05-22T16:14:47.417Z,27.60
2023-05-22T16:17:15.222Z,27.60
2023-05-22T16:19:44.338Z,27.60
2023-05-22T16:22:12.556Z,27.60
2023-05-22T16:24:40.457Z,27.50
2023-05-22T16:27:08.425Z,27.40
2023-05-22T16:29:36.383Z,27.40
2023-05-22T16:32:04.568Z,27.40
2023-05-22T16:34:33.778Z,27.40
2023-05-22T16:37:03.232Z,27.30
2023-05-22T16:39:31.222Z,27.20
2023-05-22T16:41:59.056Z,27.20
2023-05-22T16:44:27.681Z,27.20
2023-05-22T16:46:55.770Z,27.10
2023-05-22T16:49:23.760Z,27.10
2023-05-22T16:51:51.653Z,27.00
2023-05-22T16:54:21.455Z,26.90
2023-05-22T16:56:49.251Z,26.80
2023-05-22T16:59:17.380Z,26.60
2023-05-22T17:01:45.363Z,26.50
2023-05-22T17:04:15.649Z,26.50
2023-05-22T17:06:43.857Z,26.30
2023-05-22T17:09:11.711Z,26.30
2023-05-22T17:11:40.806Z,26.30
2023-05-22T17:14:08.628Z,26.30
2023-05-22T17:16:37.732Z,26.20
2023-05-22T17:19:06.313Z,26.20
2023-05-22T17:21:34.210Z,26.00
2023-05-22T17:24:01.976Z,25.90
2023-05-22T17:26:29.875Z,25.70
2023-05-22T17:28:58.976Z,25.50
2023-05-22T17:31:27.121Z,25.40
2023-05-22T17:33:55.019Z,25.40
2023-05-22T17:36:22.861Z,25.30
2023-05-22T17:38:50.674Z,25.20
2023-05-22T17:41:18.541Z,25.10
2023-05-22T17:43:46.593Z,25.00
2023-05-22T17:46:15.854Z,25.00
2023-05-22T17:48:43.734Z,25.00
2023-05-22T17:51:11.544Z,24.90
2023-05-22T17:53:39.446Z,24.90
2023-05-22T17:56:07.742Z,24.90
2023-05-22T17:58:35.577Z,24.90
2023-05-22T18:01:03.457Z,24.80
2023-05-22T18:03:32.805Z,24.70
2023-05-22T18:06:00.766Z,24.80
2023-05-22T18:08:28.757Z,24.70
2023-05-22T18:10:58.042Z,24.70
2023-05-22T18:13:25.872Z,24.60
2023-05-22T18:15:54.424Z,24.50
2023-05-22T18:18:22.790Z,24.60
2023-05-22T18:20:52.264Z,24.50
2023-05-22T18:23:20.650Z,24.40
2023-05-22T18:25:48.480Z,24.40
2023-05-22T18:28:16.324Z,24.40
2023-05-22T18:30:45.555Z,24.30
2023-05-22T18:33:13.519Z,24.20
2023-05-22T18:35:41.362Z,24.20
2023-05-22T18:38:10.579Z,24.20
2023-05-22T18:40:38.768Z,24.20
2023-05-22T18:43:07.371Z,24.20
2023-05-22T18:45:35.137Z,24.10
2023-05-22T18:48:03.084Z,24.00
2023-05-22T18:50:31.049Z,23.90
2023-05-22T18:52:58.789Z,23.90
2023-05-22T18:55:28.275Z,23.80
2023-05-22T18:57:56.299Z,23.70
2023-05-22T19:00:25.275Z,23.70
2023-05-22T19:02:53.206Z,23.60
2023-05-22T19:05:21.511Z,23.50
2023-05-22T19:07:49.717Z,23.40
2023-05-22T19:10:17.856Z,23.30
2023-05-22T19:12:47.041Z,23.10
2023-05-22T19:15:14.943Z,23.10
2023-05-22T19:17:42.796Z,23.10
2023-05-22T19:20:11.384Z,23.00
2023-05-22T19:22:39.226Z,23.00
2023-05-22T19:25:07.581Z,22.90
2023-05-22T19:27:37.317Z,23.00
2023-05-22T19:30:09.645Z,22.90
2023-05-22T19:32:37.787Z,22.90
2023-05-22T19:35:06.422Z,22.90
2023-05-22T19:37:34.193Z,22.90
2023-05-22T19:40:02.052Z,22.80
2023-05-22T19:42:30.039Z,22.80
2023-05-22T19:44:57.974Z,22.70
2023-05-22T19:47:27.239Z,22.70
2023-05-22T19:49:55.143Z,22.60
2023-05-22T19:52:22.966Z,22.60
2023-05-22T19:54:50.803Z,22.60
2023-05-22T19:57:19.655Z,22.60
2023-05-22T19:59:47.519Z,22.60
2023-05-22T20:02:15.470Z,22.50
2023-05-22T20:04:48.337Z,22.50
2023-05-22T20:07:16.500Z,22.40
2023-05-22T20:09:44.312Z,22.40
2023-05-22T20:12:12.179Z,22.20
2023-05-22T20:14:39.982Z,22.20
2023-05-22T20:17:08.080Z,22.00
2023-05-22T20:19:36.309Z,22.20
2023-05-22T20:22:06.134Z,22.20
2023-05-22T20:24:35.524Z,22.20
2023-05-22T20:27:05.080Z,22.10
2023-05-22T20:29:33.048Z,22.00
2023-05-22T20:32:01.036Z,22.10
2023-05-22T20:34:28.958Z,22.00
2023-05-22T20:36:58.308Z,22.00
2023-05-22T20:39:28.161Z,21.90
2023-05-22T20:41:56.022Z,22.00
2023-05-22T20:44:24.801Z,21.90
2023-05-22T20:46:52.989Z,22.00
2023-05-22T20:49:21.304Z,21.90
2023-05-22T20:51:49.961Z,21.90
2023-05-22T20:54:18.388Z,21.50
2023-05-22T20:56:47.673Z,21.80
2023-05-22T20:59:15.635Z,21.80
2023-05-22T21:01:43.713Z,21.70
2023-05-22T21:04:11.717Z,21.80
2023-05-22T21:06:40.322Z,21.70
2023-05-22T21:09:08.285Z,21.80
2023-05-22T21:11:36.420Z,21.70
2023-05-22T21:14:06.079Z,21.80
2023-05-22T21:16:36.399Z,21.70
2023-05-22T21:19:07.466Z,21.90
2023-05-22T21:21:36.660Z,21.60
2023-05-22T21:24:04.585Z,21.60
2023-05-22T21:26:32.519Z,21.50
2023-05-22T21:29:00.391Z,21.70
2023-05-22T21:31:29.735Z,21.50
2023-05-22T21:33:57.645Z,21.80
2023-05-22T21:36:25.998Z,21.50
2023-05-22T21:38:56.325Z,21.30
2023-05-22T21:41:24.154Z,21.60
2023-05-22T21:43:51.966Z,21.60
2023-05-22T21:46:22.444Z,21.70
2023-05-22T21:48:51.696Z,21.50
2023-05-22T21:51:19.550Z,21.50
2023-05-22T21:53:47.571Z,21.50
2023-05-22T21:56:15.489Z,21.50
2023-05-22T21:58:43.300Z,21.50
2023-05-22T22:01:11.339Z,21.20
2023-05-22T22:03:39.618Z,21.40
2023-05-22T22:06:09.310Z,21.40
2023-05-22T22:08:37.090Z,21.30
2023-05-22T22:11:04.969Z,21.30
2023-05-22T22:13:32.778Z,21.10
2023-05-22T22:16:00.604Z,21.30
2023-05-22T22:18:28.451Z,20.80
2023-05-22T22:20:56.355Z,21.00
2023-05-22T22:23:26.006Z,21.00
2023-05-22T22:25:53.814Z,20.90
2023-05-22T22:28:21.600Z,20.50
2023-05-22T22:30:49.358Z,20.80
2023-05-22T22:33:17.782Z,20.60
2023-05-22T22:35:45.863Z,20.80
2023-05-22T22:38:13.611Z,20.70
2023-05-22T22:40:42.980Z,20.70
2023-05-22T22:43:11.221Z,20.60
2023-05-22T22:45:39.841Z,20.50
2023-05-22T22:48:08.027Z,20.70
2023-05-22T22:50:35.883Z,20.60
2023-05-22T22:53:03.638Z,20.40
2023-05-22T22:55:31.462Z,20.60
2023-05-22T22:58:01.822Z,20.50
2023-05-22T23:00:29.600Z,20.60
2023-05-22T23:02:57.441Z,20.60
2023-05-22T23:05:25.380Z,20.50
2023-05-22T23:07:53.257Z,20.20
2023-05-22T23:10:21.948Z,20.30
2023-05-22T23:12:50.139Z,19.90
2023-05-22T23:15:19.458Z,20.10
2023-05-22T23:20:15.079Z,20.20
2023-05-22T23:22:43.138Z,20.00
2023-05-22T23:25:11.593Z,19.60
2023-05-22T23:27:39.452Z,20.00
2023-05-22T23:30:09.290Z,19.80
2023-05-22T23:32:38.458Z,20.10
2023-05-22T23:35:07.332Z,19.50
2023-05-22T23:37:35.128Z,20.00
2023-05-22T23:40:02.926Z,19.60
2023-05-22T23:42:30.728Z,19.90
2023-05-22T23:44:58.461Z,19.50
2023-05-22T23:47:26.429Z,19.90
2023-05-22T23:49:56.640Z,20.10
2023-05-22T23:52:24.493Z,19.70
2023-05-22T23:54:52.284Z,20.10
2023-05-22T23:57:20.033Z,19.80
2023-05-22T23:59:47.802Z,20.00
